Time;durP1;ratioP1;P1;durP2;ratioP2;P2;SDS_P1;SDS_P2;PMS_P1;PMS_P2;Temp;Humidity;BMP_temperature;BMP_pressure;BME280_temperature;BME280_humidity;BME280_pressure;Samples;Min_cycle;Max_cycle;Signal;HPM_P1;HPM_P2
2022/07/01 00:01:25;;;;;;;5.50;2.17;;;16.40;99.90;;;;;;5068085;28;20485;-68
2022/07/01 00:03:51;;;;;;;5.00;1.98;;;16.50;99.90;;;;;;5050277;28;20032;-68
2022/07/01 00:06:17;;;;;;;3.92;1.80;;;16.50;99.90;;;;;;5066277;28;20433;-68
2022/07/01 00:08:44;;;;;;;3.20;1.67;;;16.50;99.90;;;;;;5051978;28;20389;-68
2022/07/01 00:11:09;;;;;;;5.63;1.77;;;16.50;99.90;;;;;;5067709;28;20090;-68
2022/07/01 00:13:35;;;;;;;6.97;1.70;;;16.50;99.90;;;;;;5067496;28;20481;-68
2022/07/01 00:16:00;;;;;;;5.75;1.70;;;16.50;99.90;;;;;;5049922;28;20036;-68
2022/07/01 00:18:26;;;;;;;6.20;1.80;;;16.80;99.90;;;;;;5068386;28;20048;-68
2022/07/01 00:20:52;;;;;;;5.65;1.83;;;16.50;99.90;;;;;;5074711;28;20115;-68
2022/07/01 00:23:18;;;;;;;4.63;1.85;;;17.00;99.90;;;;;;5069548;28;20556;-68
2022/07/01 00:25:45;;;;;;;4.35;1.80;;;16.50;99.90;;;;;;5088213;28;20067;-68
2022/07/01 00:28:11;;;;;;;3.53;1.55;;;16.50;99.90;;;;;;5054061;28;20086;-68
2022/07/01 00:30:37;;;;;;;5.15;1.80;;;16.50;99.90;;;;;;5068635;28;20044;-68
2022/07/01 00:33:03;;;;;;;6.05;2.00;;;16.50;99.90;;;;;;5068380;28;20048;-68
2022/07/01 00:35:29;;;;;;;4.45;1.80;;;16.90;99.90;;;;;;5067949;28;20430;-68
2022/07/01 00:37:55;;;;;;;4.82;1.70;;;16.60;99.90;;;;;;5049244;28;20166;-67
2022/07/01 00:40:20;;;;;;;6.32;1.90;;;16.50;99.90;;;;;;5066833;28;20127;-67
2022/07/01 00:42:46;;;;;;;4.57;2.05;;;16.50;99.90;;;;;;5067911;28;20090;-67
2022/07/01 00:45:13;;;;;;;3.60;2.05;;;16.50;99.90;;;;;;5068239;28;20045;-67
2022/07/01 00:47:40;;;;;;;5.25;2.30;;;16.40;99.90;;;;;;5064757;28;20039;-69
2022/07/01 00:50:08;;;;;;;4.78;2.10;;;17.00;99.90;;;;;;5081187;28;20495;-70
2022/07/01 00:52:34;;;;;;;6.72;2.20;;;16.40;99.90;;;;;;5048944;28;20052;-66
2022/07/01 00:55:04;;;;;;;4.30;2.28;;;16.40;99.90;;;;;;5049297;28;20480;-67
2022/07/01 00:57:35;;;;;;;4.60;2.30;;;16.50;99.90;;;;;;5068653;28;20051;-69
2022/07/01 01:00:10;;;;;;;7.07;2.10;;;16.50;99.90;;;;;;5039221;28;20056;-69
2022/07/01 01:02:36;;;;;;;4.85;2.30;;;16.50;99.90;;;;;;5028669;28;20056;-69
2022/07/01 01:05:03;;;;;;;3.72;1.92;;;16.50;99.90;;;;;;5030026;28;20045;-68
2022/07/01 01:07:30;;;;;;;6.07;2.42;;;16.40;99.90;;;;;;5046743;28;20048;-68
2022/07/01 01:09:57;;;;;;;4.57;2.00;;;16.40;99.90;;;;;;5047171;28;20060;-68
2022/07/01 01:12:25;;;;;;;4.88;1.85;;;16.50;99.90;;;;;;5047046;28;20048;-67
2022/07/01 01:14:51;;;;;;;4.15;1.90;;;16.40;99.90;;;;;;5041060;28;20032;-68
2022/07/01 01:17:18;;;;;;;3.50;1.80;;;17.10;99.90;;;;;;5068503;28;20437;-68
2022/07/01 01:19:44;;;;;;;4.03;1.77;;;16.40;99.90;;;;;;5067237;28;20662;-68
2022/07/01 01:22:11;;;;;;;3.45;1.50;;;16.40;99.90;;;;;;5065882;28;20036;-68
2022/07/01 01:24:37;;;;;;;2.08;1.27;;;16.40;99.90;;;;;;5049680;28;20128;-68
2022/07/01 01:27:04;;;;;;;5.18;1.60;;;16.40;99.90;;;;;;5032887;28;20084;-68
2022/07/01 01:29:30;;;;;;;2.83;1.65;;;16.30;99.90;;;;;;5067002;28;20482;-68
2022/07/01 01:31:56;;;;;;;3.97;1.40;;;16.40;99.90;;;;;;5087314;28;20052;-68
2022/07/01 01:34:22;;;;;;;3.85;1.60;;;16.40;99.90;;;;;;5069767;28;20143;-68
2022/07/01 01:36:47;;;;;;;4.32;1.58;;;16.30;99.90;;;;;;5051023;28;20473;-68
2022/07/01 01:39:16;;;;;;;2.78;1.65;;;16.30;99.90;;;;;;5069708;28;20173;-67
2022/07/01 01:41:42;;;;;;;3.17;1.50;;;16.30;99.90;;;;;;5062841;28;20048;-68
2022/07/01 01:44:08;;;;;;;4.82;1.63;;;16.40;99.90;;;;;;5048626;28;20051;-68
2022/07/01 01:46:34;;;;;;;3.40;1.60;;;16.40;99.90;;;;;;5066846;28;20052;-68
2022/07/01 01:49:00;;;;;;;2.42;1.55;;;16.30;99.90;;;;;;5069764;28;20127;-67
2022/07/01 01:51:27;;;;;;;3.78;1.80;;;16.40;99.90;;;;;;5086874;28;20465;-68
2022/07/01 01:53:53;;;;;;;2.35;1.50;;;16.40;99.90;;;;;;5070321;28;20489;-68
2022/07/01 01:56:18;;;;;;;4.22;1.65;;;16.30;99.90;;;;;;5070220;28;20052;-68
2022/07/01 01:58:44;;;;;;;3.78;2.00;;;16.50;99.90;;;;;;5070785;28;20486;-67
2022/07/01 02:01:13;;;;;;;4.03;1.92;;;16.40;99.90;;;;;;5055792;28;20075;-68
2022/07/01 02:03:40;;;;;;;5.00;2.00;;;16.40;99.90;;;;;;5053132;28;20562;-68
2022/07/01 02:06:07;;;;;;;4.22;1.88;;;16.40;99.90;;;;;;5051516;28;20113;-68
2022/07/01 02:08:33;;;;;;;3.58;2.17;;;17.00;99.90;;;;;;5054508;28;20036;-67
2022/07/01 02:10:59;;;;;;;5.38;2.00;;;16.80;99.90;;;;;;5079077;28;20043;-67
2022/07/01 02:13:25;;;;;;;3.45;1.60;;;16.40;99.90;;;;;;5059051;28;20412;-67
2022/07/01 02:15:51;;;;;;;4.07;1.63;;;16.40;99.90;;;;;;5071015;28;20080;-67
2022/07/01 02:18:17;;;;;;;4.53;1.83;;;16.40;99.90;;;;;;5070354;28;20133;-67
2022/07/01 02:20:43;;;;;;;3.60;1.60;;;16.30;99.90;;;;;;5057061;28;20044;-67
2022/07/01 02:23:09;;;;;;;5.03;1.80;;;16.30;99.90;;;;;;5064366;28;20421;-67
2022/07/01 02:25:36;;;;;;;4.95;1.50;;;16.30;99.90;;;;;;5070064;28;20044;-67
2022/07/01 02:28:02;;;;;;;3.35;1.30;;;16.70;99.90;;;;;;5052177;28;20041;-67
2022/07/01 02:30:28;;;;;;;3.78;1.80;;;16.20;99.90;;;;;;5073548;28;20105;-67
2022/07/01 02:32:54;;;;;;;3.55;1.67;;;16.20;99.90;;;;;;5073722;28;20416;-67
2022/07/01 02:35:20;;;;;;;4.00;1.70;;;16.10;99.90;;;;;;5072260;28;20044;-68
2022/07/01 02:37:46;;;;;;;3.50;1.70;;;16.10;99.90;;;;;;5088409;28;20047;-66
2022/07/01 02:40:13;;;;;;;3.92;1.80;;;16.20;99.90;;;;;;5064597;28;20043;-67
2022/07/01 02:42:38;;;;;;;5.28;2.03;;;16.10;99.90;;;;;;5052615;28;20152;-67
2022/07/01 02:45:06;;;;;;;3.85;2.10;;;16.10;99.90;;;;;;5070433;28;20119;-67
2022/07/01 02:47:39;;;;;;;3.92;2.08;;;16.10;99.90;;;;;;5068954;28;20134;-67
2022/07/01 02:50:08;;;;;;;3.35;1.98;;;16.10;99.90;;;;;;5052306;28;20055;-67
2022/07/01 02:52:34;;;;;;;5.82;2.50;;;16.10;99.90;;;;;;5083153;28;20419;-67
2022/07/01 02:55:01;;;;;;;3.65;1.98;;;16.10;99.90;;;;;;5090582;28;20039;-67
2022/07/01 02:57:26;;;;;;;4.03;2.20;;;15.90;99.90;;;;;;5089926;28;20040;-69
2022/07/01 02:59:53;;;;;;;4.32;2.33;;;16.00;99.90;;;;;;5059035;28;20041;-67
2022/07/01 03:02:19;;;;;;;5.13;2.38;;;16.00;99.90;;;;;;5086413;28;20094;-67
2022/07/01 03:04:49;;;;;;;3.95;2.10;;;16.00;99.90;;;;;;5072007;28;20071;-67
2022/07/01 03:07:16;;;;;;;3.50;2.28;;;15.90;99.90;;;;;;5083751;28;20087;-67
2022/07/01 03:09:43;;;;;;;4.63;2.42;;;15.90;99.90;;;;;;5051065;28;20076;-67
2022/07/01 03:12:25;;;;;;;4.47;2.30;;;15.90;99.90;;;;;;5050719;28;20040;-67
2022/07/01 03:15:00;;;;;;;4.47;2.60;;;15.90;99.90;;;;;;5069158;28;20175;-67
2022/07/01 03:17:27;;;;;;;;;;;15.90;99.90;;;;;;5069971;28;20437;-67
2022/07/01 03:19:53;;;;;;;7.38;2.70;;;15.90;99.90;;;;;;5069874;28;19924;-69
2022/07/01 03:22:20;;;;;;;5.03;2.53;;;15.80;99.90;;;;;;5049695;28;20041;-69
2022/07/01 03:24:47;;;;;;;3.90;2.47;;;15.80;99.90;;;;;;5053542;28;20441;-69
2022/07/01 03:27:14;;;;;;;4.63;3.00;;;15.80;99.90;;;;;;5050724;28;20055;-69
2022/07/01 03:29:39;;;;;;;4.60;2.97;;;15.90;99.90;;;;;;5034051;28;20168;-69
2022/07/01 03:32:05;;;;;;;5.05;2.70;;;15.70;99.90;;;;;;5068499;28;20131;-69
2022/07/01 03:34:31;;;;;;;6.22;3.00;;;15.70;99.90;;;;;;5054831;28;20036;-69
2022/07/01 03:36:57;;;;;;;5.28;2.70;;;15.90;99.90;;;;;;5069323;28;20047;-69
2022/07/01 03:39:23;;;;;;;3.20;2.58;;;15.70;99.90;;;;;;5089130;28;20196;-69
2022/07/01 03:41:48;;;;;;;4.65;2.88;;;16.30;99.90;;;;;;5069436;28;20137;-69
2022/07/01 03:44:14;;;;;;;4.32;2.75;;;16.20;99.90;;;;;;5053609;28;20528;-69
2022/07/01 03:46:40;;;;;;;4.32;2.83;;;15.80;99.90;;;;;;5088749;28;20048;-69
2022/07/01 03:49:05;;;;;;;4.72;2.78;;;15.60;99.90;;;;;;5071238;28;20044;-68
2022/07/01 03:51:31;;;;;;;5.57;2.90;;;16.10;99.90;;;;;;5086701;28;20042;-69
2022/07/01 03:56:40;;;;;;;4.30;2.72;;;15.70;99.90;;;;;;5070160;28;20044;-69
2022/07/01 03:59:06;;;;;;;4.95;3.20;;;15.70;99.90;;;;;;5088213;28;20177;-69
2022/07/01 04:01:32;;;;;;;6.55;3.10;;;15.80;99.90;;;;;;5068085;28;20036;-69
2022/07/01 04:03:57;;;;;;;6.57;3.20;;;15.80;99.90;;;;;;5067916;28;20115;-69
2022/07/01 04:06:23;;;;;;;6.45;3.00;;;15.80;99.90;;;;;;5066717;28;20497;-69
2022/07/01 04:08:49;;;;;;;6.07;3.00;;;15.90;99.90;;;;;;5068887;28;20476;-68
2022/07/01 04:11:16;;;;;;;6.43;3.08;;;15.80;99.90;;;;;;5033862;28;20390;-68
2022/07/01 04:13:49;;;;;;;6.68;3.28;;;15.90;99.90;;;;;;5060564;28;20041;-68
2022/07/01 04:16:16;;;;;;;5.72;3.20;;;16.00;99.90;;;;;;5051551;28;20056;-68
2022/07/01 04:18:42;;;;;;;7.40;3.00;;;15.70;99.90;;;;;;5052369;28;20053;-67
2022/07/01 04:23:53;;;;;;;7.95;3.60;;;15.80;99.90;;;;;;5055689;28;20041;-68
2022/07/01 04:26:18;;;;;;;7.70;3.53;;;15.80;99.90;;;;;;5069287;28;20051;-67
2022/07/01 04:28:44;;;;;;;7.30;3.50;;;15.70;99.90;;;;;;5069073;28;20066;-68
2022/07/01 04:31:10;;;;;;;5.53;3.60;;;15.80;99.90;;;;;;5049088;28;20048;-68
2022/07/01 04:33:35;;;;;;;5.43;3.63;;;15.70;99.90;;;;;;5067949;28;20114;-68
2022/07/01 04:36:01;;;;;;;5.70;4.35;;;15.60;99.90;;;;;;5066866;28;20044;-67
2022/07/01 04:38:27;;;;;;;7.38;3.72;;;15.60;99.90;;;;;;5061649;28;20048;-67
2022/07/01 04:43:37;;;;;;;8.13;4.13;;;15.70;99.90;;;;;;5067879;28;20045;-68
2022/07/01 04:46:03;;;;;;;6.75;4.20;;;15.70;99.90;;;;;;5068721;28;20051;-68
2022/07/01 04:48:29;;;;;;;6.10;3.83;;;15.80;99.90;;;;;;5068089;28;20040;-68
2022/07/01 04:50:54;;;;;;;6.97;4.38;;;16.20;99.90;;;;;;5050920;28;20135;-68
2022/07/01 04:53:20;;;;;;;6.50;4.28;;;15.60;99.90;;;;;;5048005;28;20059;-68
2022/07/01 04:55:45;;;;;;;6.45;4.57;;;15.70;99.90;;;;;;5049846;28;20097;-68
2022/07/01 04:58:13;;;;;;;7.72;4.72;;;15.90;99.90;;;;;;5067516;28;20062;-68
2022/07/01 05:00:38;;;;;;;7.60;4.93;;;16.10;99.90;;;;;;5051084;28;20124;-67
2022/07/01 05:03:04;;;;;;;7.68;4.80;;;15.60;99.90;;;;;;5029821;28;20520;-67
2022/07/01 05:05:30;;;;;;;8.10;5.30;;;15.60;99.90;;;;;;5032081;28;20482;-68
2022/07/01 05:07:55;;;;;;;7.53;5.50;;;15.60;99.90;;;;;;5063995;28;20086;-68
2022/07/01 05:10:21;;;;;;;8.15;5.60;;;15.60;99.90;;;;;;5088159;28;20047;-68
2022/07/01 05:12:47;;;;;;;12.30;6.75;;;15.80;99.90;;;;;;5087359;28;20450;-67
2022/07/01 05:15:12;;;;;;;10.07;7.28;;;16.00;99.90;;;;;;5086970;28;20044;-68
2022/07/01 05:23:06;;;;;;;13.88;9.45;;;15.50;99.90;;;;;;5086585;28;20040;-68
2022/07/01 05:25:32;;;;;;;13.90;9.13;;;15.40;99.90;;;;;;5087390;28;20062;-67
2022/07/01 05:27:57;;;;;;;14.27;10.65;;;15.50;99.90;;;;;;5090913;28;20044;-67
2022/07/01 05:30:23;;;;;;;16.02;10.13;;;15.50;99.90;;;;;;5072715;28;20052;-68
2022/07/01 05:32:49;;;;;;;14.80;10.38;;;15.50;99.90;;;;;;5074838;28;20048;-67
2022/07/01 05:35:15;;;;;;;13.48;10.70;;;15.60;99.90;;;;;;5091627;28;20044;-67
2022/07/01 05:37:41;;;;;;;16.23;10.10;;;15.60;99.90;;;;;;5089410;28;20158;-68
2022/07/01 05:40:07;;;;;;;18.05;11.63;;;15.60;99.90;;;;;;5090929;28;20127;-68
2022/07/01 05:42:33;;;;;;;16.88;12.15;;;15.60;99.90;;;;;;5058165;28;20114;-68
2022/07/01 05:44:59;;;;;;;17.83;13.25;;;15.70;99.90;;;;;;5063414;28;20044;-68
2022/07/01 05:47:24;;;;;;;19.00;13.65;;;15.70;99.90;;;;;;5052939;28;20942;-68
2022/07/01 05:49:50;;;;;;;21.90;14.57;;;15.80;99.90;;;;;;5070622;28;20123;-69
2022/07/01 05:52:16;;;;;;;21.73;15.25;;;15.80;99.90;;;;;;5069306;28;20393;-67
2022/07/01 05:54:41;;;;;;;20.30;15.27;;;15.80;99.90;;;;;;5073512;28;20071;-68
2022/07/01 05:57:07;;;;;;;24.77;16.17;;;16.30;99.90;;;;;;5072185;28;20041;-68
2022/07/01 05:59:33;;;;;;;20.70;15.75;;;15.70;99.90;;;;;;5056303;28;20177;-68
2022/07/01 06:01:58;;;;;;;21.77;15.88;;;15.60;99.90;;;;;;5065437;28;20078;-67
2022/07/01 06:04:24;;;;;;;21.08;15.48;;;15.70;99.90;;;;;;5065825;28;20048;-68
2022/07/01 06:06:49;;;;;;;22.85;15.77;;;15.90;99.90;;;;;;5052359;28;20040;-68
2022/07/01 06:09:15;;;;;;;21.73;16.00;;;15.90;99.90;;;;;;5070589;28;20044;-68
2022/07/01 06:11:41;;;;;;;22.60;16.35;;;15.90;99.90;;;;;;5069224;28;20044;-68
2022/07/01 06:14:06;;;;;;;20.67;15.88;;;16.00;99.90;;;;;;5079897;28;20119;-68
2022/07/01 06:16:32;;;;;;;24.67;16.60;;;16.00;99.90;;;;;;5072013;28;20511;-68
2022/07/01 06:18:58;;;;;;;21.80;16.95;;;16.10;99.90;;;;;;5051917;28;20052;-68
2022/07/01 06:21:24;;;;;;;21.85;15.77;;;16.10;99.90;;;;;;5067525;28;20404;-68
2022/07/01 06:23:49;;;;;;;23.75;16.25;;;16.20;99.90;;;;;;5090955;28;20040;-68
2022/07/01 06:26:15;;;;;;;22.10;14.90;;;16.30;99.90;;;;;;5070673;28;20087;-68
2022/07/01 06:28:41;;;;;;;23.58;15.65;;;16.30;99.90;;;;;;5073688;28;20095;-68
2022/07/01 06:31:07;;;;;;;21.58;15.82;;;16.20;99.90;;;;;;5087026;28;20127;-68
2022/07/01 06:33:33;;;;;;;22.00;15.10;;;16.30;99.90;;;;;;5051278;28;20135;-68
2022/07/01 06:35:58;;;;;;;21.90;15.57;;;16.30;99.90;;;;;;5052383;28;20060;-68
2022/07/01 06:38:24;;;;;;;21.88;15.77;;;16.30;99.90;;;;;;5050169;28;20039;-68
2022/07/01 06:43:35;;;;;;;22.58;16.00;;;16.50;99.90;;;;;;5070697;28;20040;-68
2022/07/01 06:46:01;;;;;;;23.92;15.60;;;16.60;99.90;;;;;;5069806;28;20048;-69
2022/07/01 06:48:28;;;;;;;21.77;15.60;;;16.60;99.90;;;;;;5053223;28;20079;-68
2022/07/01 06:50:54;;;;;;;21.20;15.45;;;16.60;99.90;;;;;;5070528;28;20036;-68
2022/07/01 06:53:19;;;;;;;21.77;16.13;;;16.80;99.90;;;;;;5067321;28;20040;-70
2022/07/01 06:55:45;;;;;;;20.40;15.40;;;16.70;99.90;;;;;;5052155;28;20044;-68
2022/07/01 06:58:10;;;;;;;27.10;17.27;;;16.60;99.90;;;;;;5069764;28;20571;-68
2022/07/01 07:00:37;;;;;;;20.67;16.20;;;16.50;99.90;;;;;;5051121;28;20059;-68
2022/07/01 07:03:02;;;;;;;25.77;17.60;;;16.70;99.90;;;;;;5049445;28;20128;-68
2022/07/01 07:05:31;;;;;;;21.85;16.45;;;17.10;99.90;;;;;;5049051;28;20120;-68
2022/07/01 07:07:57;;;;;;;22.33;17.50;;;16.60;99.90;;;;;;5028916;28;20052;-69
2022/07/01 07:10:23;;;;;;;21.13;16.33;;;16.60;99.90;;;;;;5064268;28;20060;-68
2022/07/01 07:12:49;;;;;;;22.00;16.85;;;16.60;99.90;;;;;;5091306;28;20044;-68
2022/07/01 07:15:15;;;;;;;25.48;17.20;;;16.70;99.90;;;;;;5080453;28;20071;-68
2022/07/01 07:17:41;;;;;;;23.70;17.60;;;16.60;99.90;;;;;;5071532;28;20072;-68
2022/07/01 07:20:08;;;;;;;24.88;17.80;;;16.60;99.90;;;;;;5070494;28;20047;-69
2022/07/01 07:22:33;;;;;;;21.90;15.70;;;16.60;99.90;;;;;;5085806;28;20471;-68
2022/07/01 07:24:59;;;;;;;23.75;16.92;;;16.70;99.90;;;;;;5104710;28;20044;-69
2022/07/01 07:27:25;;;;;;;21.42;16.10;;;16.70;99.90;;;;;;5086312;28;20068;-68
2022/07/01 07:29:50;;;;;;;22.55;16.40;;;16.80;99.90;;;;;;5070114;28;20048;-68
2022/07/01 07:32:16;;;;;;;24.02;16.38;;;17.00;99.90;;;;;;5088705;28;20442;-68
2022/07/01 07:34:42;;;;;;;25.13;17.70;;;17.00;99.90;;;;;;5070704;28;20047;-68
2022/07/01 07:37:07;;;;;;;23.88;17.35;;;17.00;99.90;;;;;;5051785;28;20102;-69
2022/07/01 07:39:33;;;;;;;24.90;18.00;;;17.00;99.90;;;;;;5068767;28;20467;-68
2022/07/01 07:41:59;;;;;;;22.85;17.25;;;16.90;99.90;;;;;;5065042;28;20150;-68
2022/07/01 07:44:24;;;;;;;19.75;16.85;;;17.00;99.90;;;;;;5068522;28;20037;-68
2022/07/01 07:46:50;;;;;;;24.13;16.80;;;17.30;99.90;;;;;;5050769;28;20507;-68
2022/07/01 07:49:16;;;;;;;22.05;16.58;;;17.00;99.90;;;;;;5034117;28;20382;-68
2022/07/01 07:51:42;;;;;;;20.08;15.85;;;16.90;99.90;;;;;;5049208;28;20059;-68
2022/07/01 07:54:07;;;;;;;21.08;15.13;;;16.90;99.90;;;;;;5095576;28;20048;-68
2022/07/01 07:56:33;;;;;;;18.90;15.52;;;16.90;99.90;;;;;;5048901;28;20044;-68
2022/07/01 07:58:59;;;;;;;18.70;15.10;;;17.00;99.90;;;;;;5068504;28;20049;-68
2022/07/01 08:01:25;;;;;;;22.98;15.93;;;17.10;99.90;;;;;;5049303;28;20044;-69
2022/07/01 08:03:50;;;;;;;18.70;15.70;;;17.10;99.90;;;;;;5069369;28;20055;-68
2022/07/01 08:06:16;;;;;;;17.70;14.63;;;17.10;99.90;;;;;;5049076;28;20135;-69
2022/07/01 08:08:42;;;;;;;20.42;15.20;;;17.10;99.90;;;;;;5068135;28;20175;-68
2022/07/01 08:11:08;;;;;;;18.15;14.82;;;17.50;99.90;;;;;;5060875;28;20059;-69
2022/07/01 08:13:33;;;;;;;17.23;14.43;;;17.40;99.90;;;;;;5087714;28;20047;-68
2022/07/01 08:16:00;;;;;;;17.55;13.40;;;17.60;99.90;;;;;;5087287;28;20072;-68
2022/07/01 08:18:26;;;;;;;20.15;13.48;;;17.60;99.90;;;;;;5086511;28;20503;-68
2022/07/01 08:20:52;;;;;;;18.92;12.95;;;17.60;99.90;;;;;;5060121;28;20041;-68
2022/07/01 08:23:19;;;;;;;19.00;13.75;;;17.60;99.90;;;;;;5061821;28;20051;-68
2022/07/01 08:25:46;;;;;;;17.33;13.25;;;17.70;99.90;;;;;;5066892;28;20461;-68
2022/07/01 08:28:11;;;;;;;19.45;13.30;;;17.80;99.90;;;;;;5049831;28;20222;-69
2022/07/01 08:30:37;;;;;;;18.05;12.50;;;18.00;99.90;;;;;;5067263;28;20131;-69
2022/07/01 08:33:03;;;;;;;14.15;11.82;;;18.10;99.90;;;;;;5067399;28;20401;-68
2022/07/01 08:35:29;;;;;;;15.43;11.32;;;18.20;99.90;;;;;;5050869;28;20054;-69
2022/07/01 08:37:56;;;;;;;15.13;10.80;;;18.20;99.90;;;;;;5068028;28;20097;-69
2022/07/01 08:40:28;;;;;;;15.18;10.13;;;18.20;99.90;;;;;;5052273;28;20139;-69
2022/07/01 08:43:01;;;;;;;14.88;9.60;;;18.20;99.90;;;;;;5089425;28;20376;-68
2022/07/01 08:45:31;;;;;;;13.27;9.93;;;18.20;99.90;;;;;;5087307;28;20480;-68
2022/07/01 08:48:00;;;;;;;13.50;9.20;;;18.30;99.90;;;;;;5087485;28;20127;-76
2022/07/01 08:50:31;;;;;;;13.20;9.32;;;18.30;99.90;;;;;;5087014;28;20392;-76
2022/07/01 08:52:57;;;;;;;11.88;8.18;;;18.50;99.90;;;;;;5087416;28;20051;-77
2022/07/01 08:55:24;;;;;;;10.05;6.63;;;18.70;99.90;;;;;;5087614;28;20394;-76
2022/07/01 08:57:50;;;;;;;9.98;6.30;;;18.80;99.90;;;;;;5087279;28;20051;-76
2022/07/01 09:00:17;;;;;;;10.52;6.15;;;19.10;99.90;;;;;;5060456;28;20040;-75
2022/07/01 09:03:03;;;;;;;10.10;5.45;;;19.30;99.90;;;;;;5051269;28;20049;-73
2022/07/01 09:05:31;;;;;;;12.13;7.03;;;19.60;99.90;;;;;;5051576;28;20508;-76
2022/07/01 09:08:01;;;;;;;10.95;6.35;;;19.80;99.90;;;;;;5048935;28;20077;-76
2022/07/01 09:10:30;;;;;;;10.52;5.85;;;19.60;99.90;;;;;;5051160;28;20047;-77
2022/07/01 09:12:56;;;;;;;10.90;5.85;;;19.50;99.90;;;;;;5051612;28;20037;-77
2022/07/01 09:15:30;;;;;;;12.20;5.90;;;19.60;99.90;;;;;;5051740;28;20094;-76
2022/07/01 09:18:10;;;;;;;9.98;5.30;;;19.60;99.90;;;;;;5050624;28;20051;-76
2022/07/01 09:20:37;;;;;;;12.30;5.65;;;19.80;99.90;;;;;;5063743;28;20117;-76
2022/07/01 09:23:05;;;;;;;10.23;5.30;;;19.70;99.90;;;;;;5068585;28;20047;-76
2022/07/01 09:25:48;;;;;;;10.02;4.90;;;19.70;99.90;;;;;;5070669;28;20048;-76
2022/07/01 09:28:17;;;;;;;7.22;5.18;;;19.80;99.90;;;;;;5069911;28;20132;-77
2022/07/01 09:30:48;;;;;;;9.52;4.90;;;19.60;99.90;;;;;;5052946;28;20049;-77
2022/07/01 09:33:25;;;;;;;7.22;4.80;;;19.70;99.90;;;;;;5070565;28;20370;-76
2022/07/01 09:35:53;;;;;;;11.90;6.07;;;20.00;99.90;;;;;;5069417;28;20036;-75
2022/07/01 09:38:20;;;;;;;12.85;6.40;;;19.80;99.90;;;;;;5076269;28;20047;-74
2022/07/01 09:40:50;;;;;;;10.98;6.30;;;19.80;99.90;;;;;;5089551;28;20115;-76
2022/07/01 09:43:23;;;;;;;9.27;5.20;;;20.10;99.90;;;;;;5078561;28;20061;-75
2022/07/01 09:46:02;;;;;;;8.80;4.53;;;20.40;99.90;;;;;;5051971;28;20052;-75
2022/07/01 09:48:34;;;;;;;7.15;5.13;;;20.50;99.90;;;;;;5070437;28;20099;-75
2022/07/01 09:51:05;;;;;;;9.88;4.88;;;20.40;99.90;;;;;;5069926;28;20493;-77
2022/07/01 09:53:31;;;;;;;6.55;4.00;;;20.40;99.90;;;;;;5050225;28;20045;-77
2022/07/01 09:55:57;;;;;;;6.28;3.47;;;20.10;99.90;;;;;;5052772;28;20091;-78
2022/07/01 09:58:23;;;;;;;6.57;3.30;;;20.40;99.90;;;;;;5051734;28;20055;-76
2022/07/01 10:00:51;;;;;;;9.35;3.08;;;20.60;99.90;;;;;;5070334;28;20128;-77
2022/07/01 10:03:18;;;;;;;6.40;3.17;;;20.80;99.90;;;;;;5068712;28;20059;-77
2022/07/01 10:05:47;;;;;;;5.72;3.00;;;20.80;99.90;;;;;;5069899;28;20096;-78
2022/07/01 10:08:42;;;;;;;9.93;3.60;;;21.30;99.90;;;;;;5071069;28;20045;-78
2022/07/01 10:11:49;;;;;;;7.28;3.70;;;21.40;99.90;;;;;;5051108;28;20051;-78
2022/07/01 10:14:17;;;;;;;6.72;3.97;;;21.50;99.90;;;;;;5042633;28;20057;-78
2022/07/01 10:16:48;;;;;;;6.78;3.58;;;21.60;99.90;;;;;;5069193;28;20068;-78
2022/07/01 10:19:24;;;;;;;5.85;2.90;;;22.60;99.90;;;;;;5068626;28;20497;-70
2022/07/01 10:21:51;;;;;;;;;;;24.10;99.90;;;;;;5047244;28;20130;-70
2022/07/01 10:24:18;;;;;;;7.45;3.20;;;25.50;99.00;;;;;;5031050;28;19928;-70
2022/07/01 10:26:45;;;;;;;5.95;3.15;;;27.20;97.80;;;;;;5048762;28;20052;-70
2022/07/01 10:29:33;;;;;;;7.57;3.33;;;27.50;95.70;;;;;;5049843;28;20064;-70
2022/07/01 10:32:08;;;;;;;7.85;3.22;;;28.40;94.90;;;;;;5048771;28;20508;-69
2022/07/01 10:34:39;;;;;;;9.90;3.33;;;29.00;94.30;;;;;;5049532;28;20489;-69
2022/07/01 10:37:08;;;;;;;7.45;2.92;;;29.10;93.90;;;;;;5047404;28;20393;-70
2022/07/01 10:40:00;;;;;;;7.10;3.25;;;29.70;94.30;;;;;;5047751;28;20044;-69
2022/07/01 10:42:37;;;;;;;8.68;2.60;;;30.00;93.20;;;;;;5047391;28;20428;-69
2022/07/01 10:45:11;;;;;;;7.32;2.70;;;31.30;91.50;;;;;;5030813;28;20877;-68
2022/07/01 10:47:38;;;;;;;7.25;2.97;;;29.70;92.40;;;;;;5049681;28;20251;-68
2022/07/01 10:50:08;;;;;;;7.47;2.92;;;27.50;93.80;;;;;;5049516;28;20055;-70
2022/07/01 10:52:35;;;;;;;5.65;2.92;;;26.20;95.20;;;;;;5047170;28;20109;-70
2022/07/01 10:55:03;;;;;;;7.28;3.00;;;25.60;96.10;;;;;;5064711;28;20098;-70
2022/07/01 10:57:37;;;;;;;5.80;2.70;;;24.90;96.90;;;;;;5030642;28;20131;-70
2022/07/01 11:00:03;;;;;;;6.10;2.70;;;24.20;98.50;;;;;;5065103;28;20468;-70
2022/07/01 11:02:34;;;;;;;8.40;2.97;;;24.10;99.00;;;;;;5066455;28;20049;-70
2022/07/01 11:05:17;;;;;;;6.03;2.80;;;24.00;98.80;;;;;;5049311;28;20045;-70
2022/07/01 11:07:45;;;;;;;7.38;3.13;;;23.80;99.20;;;;;;5047606;28;20041;-70
2022/07/01 11:10:12;;;;;;;6.25;2.70;;;23.50;99.80;;;;;;5049144;28;20088;-70
2022/07/01 11:12:38;;;;;;;3.85;1.95;;;23.00;99.90;;;;;;5049504;28;20140;-70
2022/07/01 11:15:05;;;;;;;5.03;1.70;;;22.50;99.90;;;;;;5031348;28;20047;-70
2022/07/01 11:17:32;;;;;;;4.70;1.65;;;21.90;99.90;;;;;;5030777;28;20044;-70
2022/07/01 11:19:59;;;;;;;4.40;1.60;;;21.50;99.90;;;;;;5047956;28;20129;-69
2022/07/01 11:22:28;;;;;;;5.53;1.80;;;21.30;99.90;;;;;;5047714;28;20053;-69
2022/07/01 11:24:56;;;;;;;4.40;1.60;;;21.40;99.90;;;;;;5048472;28;20036;-69
2022/07/01 11:27:22;;;;;;;4.60;1.70;;;21.40;99.90;;;;;;5048010;28;20103;-69
2022/07/01 11:29:59;;;;;;;4.65;1.55;;;21.20;99.90;;;;;;5030559;28;20045;-69
2022/07/01 11:32:29;;;;;;;3.40;1.40;;;20.90;99.90;;;;;;5048079;28;20049;-68
2022/07/01 11:34:56;;;;;;;4.53;1.50;;;20.40;99.90;;;;;;5048103;28;20406;-69
2022/07/01 11:40:12;;;;;;;3.25;1.20;;;20.00;99.90;;;;;;5048884;28;20045;-69
2022/07/01 11:42:38;;;;;;;7.00;1.60;;;20.30;99.90;;;;;;5046962;28;20139;-71
2022/07/01 11:45:05;;;;;;;5.38;1.50;;;20.50;99.90;;;;;;5047855;28;20091;-69
2022/07/01 11:47:31;;;;;;;3.55;1.40;;;21.10;99.90;;;;;;5063738;28;20482;-69
2022/07/01 11:49:58;;;;;;;5.05;1.48;;;22.90;99.90;;;;;;5049240;28;20040;-69
2022/07/01 11:52:24;;;;;;;4.38;1.30;;;25.50;99.90;;;;;;5062151;28;20056;-69
2022/07/01 11:54:57;;;;;;;4.22;1.40;;;25.60;99.60;;;;;;5050316;28;20044;-69
2022/07/01 11:57:28;;;;;;;4.68;1.40;;;25.00;99.10;;;;;;5047420;28;20049;-69
2022/07/01 11:59:55;;;;;;;3.78;1.50;;;24.30;99.90;;;;;;5047966;28;20061;-69
2022/07/01 12:02:23;;;;;;;4.20;1.48;;;23.50;99.90;;;;;;5047190;28;20041;-68
2022/07/01 12:04:50;;;;;;;5.65;1.55;;;22.90;99.90;;;;;;5030814;28;20064;-68
2022/07/01 12:07:21;;;;;;;4.50;1.60;;;22.60;99.90;;;;;;5047693;28;20124;-69
2022/07/01 12:09:47;;;;;;;6.03;1.63;;;22.50;99.90;;;;;;5029374;28;20179;-68
2022/07/01 12:12:21;;;;;;;4.15;1.40;;;24.00;99.90;;;;;;5046657;28;20045;-68
2022/07/01 12:14:57;;;;;;;4.60;1.63;;;25.70;99.90;;;;;;5048014;28;20048;-69
2022/07/01 12:17:25;;;;;;;5.57;1.90;;;26.10;98.60;;;;;;5045420;28;20045;-69
2022/07/01 12:19:52;;;;;;;4.10;1.48;;;25.50;98.60;;;;;;5047526;28;20036;-69
2022/07/01 12:22:21;;;;;;;5.50;1.73;;;25.50;99.10;;;;;;5046087;28;20053;-68
2022/07/01 12:24:49;;;;;;;5.72;1.80;;;25.10;99.40;;;;;;5046631;28;20060;-69
2022/07/01 12:27:15;;;;;;;4.80;1.70;;;24.80;99.90;;;;;;5047301;28;20052;-69
2022/07/01 12:29:47;;;;;;;3.92;1.40;;;24.50;99.90;;;;;;5047315;28;20057;-69
2022/07/01 12:32:15;;;;;;;3.90;1.42;;;24.10;99.90;;;;;;5046680;28;20063;-69
2022/07/01 12:34:58;;;;;;;4.60;1.50;;;24.00;99.90;;;;;;5039592;28;20389;-70
2022/07/01 12:37:32;;;;;;;6.55;1.50;;;24.00;99.90;;;;;;5047171;28;20119;-70
2022/07/01 12:40:19;;;;;;;6.53;1.55;;;23.80;99.90;;;;;;5067308;28;20041;-70
2022/07/01 12:42:45;;;;;;;3.90;1.52;;;23.50;99.90;;;;;;5066985;28;20051;-69
2022/07/01 12:45:13;;;;;;;5.45;1.50;;;23.20;99.90;;;;;;5067218;28;20461;-70
2022/07/01 12:47:43;;;;;;;4.95;1.40;;;23.20;99.90;;;;;;5066864;28;20048;-70
2022/07/01 12:50:19;;;;;;;4.22;1.40;;;22.90;99.90;;;;;;5049674;28;20055;-70
2022/07/01 12:53:08;;;;;;;5.47;1.50;;;22.70;99.90;;;;;;5066066;28;20071;-70
2022/07/01 12:55:35;;;;;;;3.53;1.27;;;22.40;99.90;;;;;;5067759;28;20087;-70
2022/07/01 12:58:03;;;;;;;4.13;1.30;;;22.40;99.90;;;;;;5048695;28;20044;-68
2022/07/01 13:00:30;;;;;;;7.38;1.67;;;22.40;99.90;;;;;;5050439;28;20051;-69
2022/07/01 13:02:59;;;;;;;4.18;1.35;;;22.30;99.90;;;;;;5068157;28;20078;-69